Centerville, Washington
Current Conditions -  °F | °C
As of 9:53 AM on Saturday 25 Oct 2014 (Local Time) from KDLS Reporting Station
Overcast Overcast  
Wind Chill: 12°   Ceiling: 2000
Heat Index: 12°   Visibility: 10mi
Dew Point: 10°   Wind: 5mph
Humidity: 89%   Direction: 110°ESE
Pressure: 29.61"   Gusts: NA
Location:  45.75°N, 120.91°W
Report Text: KDLS 251653Z AUTO 11004KT 10SM OVC020 12/10 A2961 RMK AO2 SLP028 T01170100
Loading
Personal Weather Stations






























Interactive Weather Map
Tropical Storm Tracking
New forecast layout! Learn more

10-Day Weather Forecast

Advertisements
Track Severe Weather on mobile